ACT        NSW        VIC        QLD        SA        WA        TAS        NT        INFO        CALC            by VK5ZD

  Atmospheric Gas Attenuation - ITU Rec 676-11   --------------- db/100km ---------------
Station Date Time Temp RH % AH g/m3 Dew Point Wind Direction Speed kph Gust kph Barometer mB Rainfall Since 9am 24GHz 47GHz 76GHz 122GHz 134GHz 241GHz
Alice Springs Airport 05 12:40 40.9 14 7.48 8.1 24 30 1004.3 0 16.1 17.8 25.3 66.3 59.8 206.2
Arltunga 05 09:00 37 22 9.65 12 19 1008.3 0 20.7 21.3 33.0 86.7 83.8 290.2
Batchelor 05 12:40 29.9 73 22.02 24.5 11 15 1013.1 0.2 46.8 43.3 86.2 228.2 255.7 888.9
Borroloola 05 12:40 36.2 28 11.79 15.3 22 28 1008.7 0 25.1 24.3 40.1 105.8 107.1 371.5
Bradshaw 05 12:40 32.4 62 21.39 24.4 15 17 1009.7 0 45.2 40.8 80.3 212.7 237.4 825.8
Bradshaw-Angallari Valley (Defence) 05 12:40 31 61 19.53 22.6 6 7 1013.1 0 41.4 38.2 73.7 194.9 215.1 748.0
Bradshaw-Koolendong Valley 05 12:40 30.9 63 20.06 23.2 4 6 1013.1 0 42.6 39.2 76.1 201.4 223.1 775.6
Cape Wessel 05 12:40 30 74 22.44 24.9 20 22 1010 0.2 47.7 43.9 87.9 232.7 261.3 908.5
Central Arnhem Plateau 05 12:40 31.5 50 16.44 20.1 13 17 1007.9 0 35.0 32.6 59.9 158.5 170.7 593.3
Centre Island 05 12:40 35.7 42 17.23 20.8 20 24 1009.3 0 36.3 32.3 59.9 158.6 171.8 597.7
Channel Point 05 09:00 27 92 23.68 25.6 0 1010.6 8 50.7 48.1 97.8 259.0 292.7 1017.1
Charles Point 05 12:40 29.6 87 25.82 27.2 7 9 1013.1 0.8 54.9 51.1 105.5 279.5 318.4 1106.6
Croker Island Airport 05 12:40 32.1 63 21.39 24.4 9 15 1013.1 0 45.2 41.0 80.9 214.1 238.9 830.9
Curtin Springs 05 09:00 34.5 28 10.79 13.8 7 1007.7 0 23.1 23.3 37.6 99.0 98.4 340.9
Daly Waters 05 12:40 37.2 29 12.85 16.7 15 19 1013.1 0 27.2 25.6 43.3 114.3 117.7 408.7
Darwin Airport 05 12:40 30 73 22.14 24.6 15 19 1009.1 0 47.1 43.3 86.4 228.8 256.5 891.8
Darwin Harbour 05 12:40 28.1 81 22.15 24.6 15 17 1013.1 0 47.3 44.5 88.9 235.4 264.0 917.6
Delamere 05 12:40 31.8 51 17.04 20.7 11 13 1008.1 0.2 36.2 33.4 62.1 164.4 178.0 618.7
Douglas River 05 12:40 32 60 20.26 23.5 9 11 1009.1 0 42.9 38.9 75.7 200.3 222.1 772.5
Elliott 05 09:00 30.9 53 16.87 20.4 13 1010.4 0 35.9 33.6 62.3 164.7 178.1 618.9
Gove Airport 05 12:40 29.8 75 22.5 24.9 20 24 1009.4 2.6 47.8 44.1 88.4 234.0 262.9 913.9
Groote Eylandt Airport 05 12:40 33.4 58 21.1 24 22 28 1008.7 0 44.5 39.7 77.9 206.4 230.0 800.0
Jabiru 05 12:40 33.4 58 21.1 24 7 9 1008.5 0 44.5 39.7 77.9 206.4 229.9 799.9
Jervois 05 12:40 43.3 13 7.82 8.9 20 26 1004.8 0 16.7 17.8 25.6 67.0 61.2 211.0
Kangaroo Flats (Defence) 05 12:40 29.2 77 22.36 24.7 0 2 1013.1 0.4 47.6 44.4 88.6 234.7 263.4 915.7
Lajamanu 05 12:40 37.8 23 10.51 13.1 22 24 1007.3 0 22.4 22.2 35.3 92.8 91.6 317.5
Maningrida Airport 05 12:40 31.7 66 21.93 24.6 15 20 1008.7 0.4 46.4 42.0 83.5 221.1 247.5 860.8
Mcarthur River Mine 05 12:40 36.2 30 12.63 15.9 7 11 1008.3 0 26.8 25.4 42.9 113.2 116.2 403.6
Mccluer Island 05 12:40 30.5 73 22.75 25.1 19 19 1008.4 0 48.3 44.2 88.7 234.9 264.1 918.3
Middle Point 05 12:40 30.1 81 24.7 26.6 9 9 1013.1 0 52.4 48.5 99.1 262.4 297.7 1034.7
Milingimbi 05 12:40 28.3 81 22.4 24.7 11 15 1009.9 0 47.8 44.8 89.7 237.5 266.7 927.0
Mount Bundey North (Defence) 05 12:40 31.9 62 20.83 23.7 6 6 1013.1 0 44.1 40.1 78.5 207.9 231.3 804.4
Mount Bundey South (Defence) 05 12:40 32.2 59 20.14 23.4 4 6 1013.1 0.2 42.6 38.8 75.2 199.0 220.4 766.6
Murganella Airstrip 05 12:40 30.7 74 23.31 25.5 7 11 1013.1 0.6 49.4 45.4 91.4 242.2 273.0 949.2
Ngayawili (Elcho Island) 05 12:40 26.8 100 25.45 26.8 0 9 1009.7 3.6 54.5 51.9 107.3 284.3 323.7 1124.5
Ngukurr Aws 05 12:40 37.6 33 14.93 19 13 17 1013.1 0 31.4 28.4 50.3 132.9 140.6 488.9
Noonamah 05 12:40 27.5 93 24.61 26.2 0 0 1013.1 5.6 52.6 49.9 102.1 270.5 306.9 1066.2
Oenpelli Airport 05 12:40 34.2 56 21.24 24.4 17 22 1013.1 0.2 44.7 39.8 78.0 206.6 230.2 801.0
Pirlangimpi 05 12:40 26.5 92 23.03 25.1 0 0 1013.1 12 49.4 47.2 95.3 252.4 284.3 987.8
Point Fawcett 05 12:40 26.1 91 22.28 24.5 0 4 1009.1 1.8 47.9 45.7 91.7 242.9 272.7 947.4
Point Stuart 05 12:40 31.9 79 26.54 27.8 24 30 1008.8 0 56.1 50.9 105.6 279.8 319.6 1111.1
Rabbit Flat 05 12:40 40.2 20 10.32 12.9 13 17 1005.8 0 21.9 21.3 33.7 88.6 87.0 301.6
Tennant Creek 05 12:40 38.8 26 12.5 16.4 13 17 1007.3 0 26.4 24.5 41.1 108.5 111.1 385.9
Territory Grape Farm 05 12:40 40.2 18 9.29 11.3 17 20 1013.1 0 19.8 20.3 30.9 81.1 77.6 268.4
Tindal 05 12:40 34.3 45 17.16 21 13 15 1008.2 0.2 36.2 32.7 60.7 160.5 173.9 604.8
Victoria River Downs 05 12:40 33.2 42 15.12 18.9 17 20 1009 0 32.1 29.9 53.6 141.7 150.5 523.0
Wadeye (Port Keats) 05 12:40 29.9 71 21.42 24.1 15 19 1009.2 0 45.6 42.0 83.1 220.1 245.8 854.6
Walungurru (Kintore) 05 12:40 39.5 17 8.47 9.9 26 33 1005.9 0 18.2 19.3 28.6 74.9 70.0 241.8
Warruwi 05 12:40 27.9 89 24.07 25.9 2 4 1013.1 14 51.4 48.5 98.8 261.7 296.1 1029.0
Wave Hill (Kalkarindji) 05 09:00 30.5 59 18.38 21.6 2 1010.3 0 39.1 36.3 69.0 182.4 199.8 694.4
Yulara 05 12:40 38.8 21 10.1 12.5 19 22 1006.1 0 21.5 21.4 33.6 88.3 86.3 299.1

Last Refresh: 05-Dec-2020 13:53:48

The information presented on this site is sourced from the Bureau of Meteorology.  Copyright in all material sourced from the Bureau of Meteorology resides with the Commonwealth of Australia.